createdAt,value
2023-05-24T00:00:00.147Z,5.90
2023-05-24T00:02:28.062Z,3.75
2023-05-24T00:07:28.136Z,3.80
2023-05-24T00:09:55.481Z,3.78
2023-05-24T00:12:22.638Z,4.43
2023-05-24T00:14:49.724Z,4.22
2023-05-24T00:17:16.811Z,3.53
2023-05-24T00:19:43.973Z,3.45
2023-05-24T00:22:11.940Z,3.22
2023-05-24T00:24:39.440Z,3.75
2023-05-24T00:29:52.530Z,3.30
2023-05-24T00:32:19.687Z,3.40
2023-05-24T00:34:47.157Z,3.92
2023-05-24T00:37:14.931Z,4.15
2023-05-24T00:39:42.068Z,3.30
2023-05-24T00:42:09.194Z,4.53
2023-05-24T00:44:36.419Z,5.07
2023-05-24T00:47:03.550Z,3.35
2023-05-24T00:49:31.473Z,4.03
2023-05-24T00:51:58.619Z,3.33
2023-05-24T00:54:26.984Z,3.58
2023-05-24T00:56:54.738Z,3.20
2023-05-24T00:59:21.893Z,3.08
2023-05-24T01:01:49.252Z,3.55
2023-05-24T01:04:17.747Z,3.58
2023-05-24T01:06:57.722Z,3.60
2023-05-24T01:09:35.444Z,5.13
2023-05-24T01:12:11.085Z,3.85
2023-05-24T01:14:44.222Z,3.30
2023-05-24T01:17:20.051Z,3.05
2023-05-24T01:19:47.250Z,3.78
2023-05-24T01:22:39.823Z,4.00
2023-05-24T01:25:25.668Z,3.72
2023-05-24T01:27:53.169Z,2.97
2023-05-24T01:30:20.970Z,3.30
2023-05-24T01:32:48.520Z,4.40
2023-05-24T01:35:15.684Z,2.95
2023-05-24T01:37:42.939Z,3.97
2023-05-24T01:40:10.776Z,3.83
2023-05-24T01:42:44.551Z,3.25
2023-05-24T01:45:24.030Z,3.80
2023-05-24T01:48:12.167Z,4.10
2023-05-24T01:51:05.443Z,3.85
2023-05-24T01:53:37.595Z,4.20
2023-05-24T01:56:06.969Z,3.70
2023-05-24T01:58:35.573Z,3.88
2023-05-24T02:01:03.431Z,4.47
2023-05-24T02:03:31.514Z,4.72
2023-05-24T02:05:58.757Z,3.80
2023-05-24T02:08:26.020Z,4.47
2023-05-24T02:10:53.236Z,4.40
2023-05-24T02:13:20.939Z,5.22
2023-05-24T02:15:48.184Z,4.43
2023-05-24T02:18:18.645Z,3.38
2023-05-24T02:20:46.965Z,4.70
2023-05-24T02:23:14.643Z,4.43
2023-05-24T02:25:41.792Z,3.97
2023-05-24T02:28:08.965Z,4.53
2023-05-24T02:30:36.311Z,4.07
2023-05-24T02:33:03.599Z,3.70
2023-05-24T02:35:33.124Z,5.20
2023-05-24T02:38:01.550Z,3.83
2023-05-24T02:40:28.794Z,4.60
2023-05-24T02:42:55.922Z,4.18
2023-05-24T02:45:23.152Z,3.70
2023-05-24T02:47:50.649Z,4.50
2023-05-24T02:50:18.114Z,4.00
2023-05-24T02:52:45.352Z,5.70
2023-05-24T02:55:12.547Z,3.75
2023-05-24T02:57:39.755Z,3.72
2023-05-24T03:00:11.652Z,5.07
2023-05-24T03:02:41.344Z,4.07
2023-05-24T03:05:08.907Z,4.63
2023-05-24T03:07:36.505Z,4.53
2023-05-24T03:10:03.830Z,3.75
2023-05-24T03:12:30.940Z,3.95
2023-05-24T03:14:58.095Z,4.72
2023-05-24T03:17:25.391Z,4.72
2023-05-24T03:19:53.055Z,4.22
2023-05-24T03:22:20.366Z,6.43
2023-05-24T03:24:48.851Z,4.20
2023-05-24T03:27:16.093Z,4.53
2023-05-24T03:29:46.346Z,3.85
2023-05-24T03:32:13.542Z,4.43
2023-05-24T03:34:40.789Z,3.78
2023-05-24T03:37:07.863Z,5.35
2023-05-24T03:39:35.109Z,4.78
2023-05-24T03:42:02.355Z,4.38
2023-05-24T03:44:29.606Z,4.30
2023-05-24T03:46:56.762Z,4.68
2023-05-24T03:49:23.904Z,5.72
2023-05-24T03:51:51.098Z,4.60
2023-05-24T03:54:18.407Z,4.60
2023-05-24T03:56:45.675Z,4.95
2023-05-24T03:59:12.908Z,4.60
2023-05-24T04:01:43.110Z,4.93
2023-05-24T04:04:10.516Z,5.85
2023-05-24T04:06:38.161Z,4.75
2023-05-24T04:09:05.988Z,5.88
2023-05-24T04:11:33.337Z,5.32
2023-05-24T04:14:00.938Z,5.93
2023-05-24T04:16:28.697Z,5.43
2023-05-24T04:18:56.331Z,5.60
2023-05-24T04:21:23.684Z,7.15
2023-05-24T04:23:51.116Z,4.93
2023-05-24T04:26:18.615Z,4.93
2023-05-24T04:28:46.849Z,6.60
2023-05-24T04:31:15.658Z,6.15
2023-05-24T04:33:42.923Z,5.93
2023-05-24T04:36:11.699Z,5.68
2023-05-24T04:38:39.786Z,6.38
2023-05-24T04:41:07.339Z,5.30
2023-05-24T04:43:35.087Z,5.57
2023-05-24T04:46:02.473Z,7.65
2023-05-24T04:48:29.621Z,6.53
2023-05-24T04:50:58.080Z,5.38
2023-05-24T04:53:25.678Z,6.13
2023-05-24T04:55:53.188Z,5.90
2023-05-24T04:58:20.416Z,6.28
2023-05-24T05:00:47.705Z,5.15
2023-05-24T05:03:14.922Z,5.60
2023-05-24T05:05:42.268Z,5.55
2023-05-24T05:08:09.743Z,6.40
2023-05-24T05:10:37.507Z,6.53
2023-05-24T05:13:04.754Z,6.03
2023-05-24T05:15:32.739Z,6.65
2023-05-24T05:18:00.426Z,7.63
2023-05-24T05:20:27.858Z,8.27
2023-05-24T05:22:54.947Z,5.88
2023-05-24T05:25:22.284Z,7.38
2023-05-24T05:27:49.523Z,6.70
2023-05-24T05:30:16.780Z,6.00
2023-05-24T05:32:44.311Z,7.25
2023-05-24T05:35:11.587Z,5.72
2023-05-24T05:37:38.822Z,6.05
2023-05-24T05:40:06.124Z,5.80
2023-05-24T05:42:33.239Z,6.20
2023-05-24T05:45:00.448Z,5.85
2023-05-24T05:47:27.598Z,6.35
2023-05-24T05:49:54.792Z,5.68
2023-05-24T05:52:22.077Z,5.65
2023-05-24T05:54:49.342Z,6.50
2023-05-24T05:57:16.479Z,7.28
2023-05-24T05:59:43.673Z,5.45
2023-05-24T06:02:12.697Z,5.05
2023-05-24T06:04:39.970Z,6.07
2023-05-24T06:07:07.214Z,5.72
2023-05-24T06:09:34.636Z,7.20
2023-05-24T06:12:01.781Z,6.85
2023-05-24T06:14:29.861Z,7.30
2023-05-24T06:16:58.079Z,6.80
2023-05-24T06:19:27.837Z,6.35
2023-05-24T06:21:55.080Z,7.30
2023-05-24T06:24:22.947Z,6.10
2023-05-24T06:26:51.634Z,7.35
2023-05-24T06:34:46.072Z,6.95
2023-05-24T06:37:15.701Z,6.95
2023-05-24T06:39:43.054Z,7.40
2023-05-24T06:42:10.939Z,7.10
2023-05-24T06:44:38.041Z,6.28
2023-05-24T06:47:05.988Z,6.90
2023-05-24T06:49:33.715Z,6.63
2023-05-24T06:52:00.864Z,6.65
2023-05-24T06:54:28.003Z,6.13
2023-05-24T06:56:55.783Z,7.63
2023-05-24T06:59:24.055Z,6.63
2023-05-24T07:01:52.518Z,9.17
2023-05-24T07:04:21.952Z,5.85
2023-05-24T07:06:51.854Z,6.60
2023-05-24T07:09:21.405Z,6.50
2023-05-24T07:11:51.835Z,7.70
2023-05-24T07:14:19.295Z,6.15
2023-05-24T07:16:46.826Z,7.38
2023-05-24T07:19:14.131Z,6.93
2023-05-24T07:21:41.307Z,7.20
2023-05-24T07:24:08.504Z,6.88
2023-05-24T07:26:35.573Z,6.40
2023-05-24T07:29:02.724Z,6.55
2023-05-24T07:31:32.514Z,6.18
2023-05-24T07:34:08.641Z,6.70
2023-05-24T07:36:36.095Z,7.80
2023-05-24T07:39:08.709Z,5.75
2023-05-24T07:41:41.806Z,5.57
2023-05-24T07:44:09.419Z,6.68
2023-05-24T07:46:40.444Z,5.70
2023-05-24T07:49:12.145Z,5.32
2023-05-24T07:51:42.333Z,5.05
2023-05-24T07:54:10.072Z,6.07
2023-05-24T07:56:37.708Z,4.25
2023-05-24T07:59:04.843Z,5.28
2023-05-24T08:01:36.721Z,5.38
2023-05-24T08:04:04.498Z,4.45
2023-05-24T08:06:33.042Z,4.60
2023-05-24T08:09:00.791Z,4.50
2023-05-24T08:11:27.938Z,6.15
2023-05-24T08:13:55.401Z,4.38
2023-05-24T08:16:23.199Z,5.63
2023-05-24T08:18:52.614Z,4.90
2023-05-24T08:21:22.674Z,4.43
2023-05-24T08:23:49.940Z,4.68
2023-05-24T08:26:19.303Z,4.85
2023-05-24T08:28:46.630Z,4.38
2023-05-24T08:31:23.185Z,5.03
2023-05-24T08:34:04.952Z,4.50
2023-05-24T08:36:41.055Z,4.03
2023-05-24T08:39:10.752Z,4.93
2023-05-24T08:41:41.581Z,4.20
2023-05-24T08:44:14.730Z,5.85
2023-05-24T08:46:44.357Z,4.45
2023-05-24T08:49:15.131Z,4.85
2023-05-24T08:51:49.522Z,4.68
2023-05-24T08:54:17.703Z,4.25
2023-05-24T08:56:47.220Z,4.45
2023-05-24T08:59:18.523Z,4.82
2023-05-24T09:01:52.165Z,5.38
2023-05-24T09:04:28.900Z,4.43
2023-05-24T09:07:02.977Z,4.95
2023-05-24T09:09:32.098Z,5.07
2023-05-24T09:17:42.907Z,5.32
2023-05-24T09:20:15.629Z,4.70
2023-05-24T09:29:38.929Z,4.22
2023-05-24T09:32:11.528Z,5.03
2023-05-24T09:35:22.683Z,4.72
2023-05-24T09:59:52.073Z,4.80
2023-05-24T10:42:44.500Z,4.13
2023-05-24T10:45:24.963Z,3.70
2023-05-24T10:47:57.161Z,4.70
2023-05-24T10:50:27.237Z,4.85
2023-05-24T10:53:14.130Z,4.10
2023-05-24T10:55:59.478Z,4.20
2023-05-24T10:59:04.036Z,3.72
2023-05-24T11:01:42.863Z,4.57
2023-05-24T11:04:11.300Z,5.32
2023-05-24T11:12:38.709Z,4.45
2023-05-24T11:15:14.965Z,4.40
2023-05-24T11:18:00.974Z,4.97
2023-05-24T11:20:28.345Z,5.13
2023-05-24T11:22:55.838Z,4.38
2023-05-24T11:25:22.916Z,5.00
2023-05-24T11:36:26.088Z,6.30
2023-05-24T11:38:54.868Z,5.85
2023-05-24T11:41:22.059Z,4.40
2023-05-24T11:43:49.118Z,4.95
2023-05-24T11:46:16.851Z,4.65
2023-05-24T11:51:26.720Z,4.82
2023-05-24T11:53:54.833Z,5.15
2023-05-24T11:56:23.264Z,5.65
2023-05-24T11:58:51.037Z,6.10
2023-05-24T12:01:25.091Z,6.20
2023-05-24T12:03:53.226Z,7.63
2023-05-24T12:06:22.983Z,8.00
2023-05-24T12:08:50.102Z,7.50
2023-05-24T12:11:17.332Z,9.80
2023-05-24T12:13:44.769Z,10.27
2023-05-24T12:16:18.224Z,9.38
2023-05-24T12:21:16.303Z,8.45
2023-05-24T12:23:43.473Z,8.35
2023-05-24T12:26:14.590Z,9.43
2023-05-24T12:28:42.027Z,9.15
2023-05-24T12:31:09.577Z,7.78
2023-05-24T12:33:48.826Z,7.43
2023-05-24T12:36:16.027Z,7.15
2023-05-24T12:38:43.155Z,6.63
2023-05-24T12:41:13.897Z,6.55
2023-05-24T12:43:44.406Z,8.13
2023-05-24T12:46:13.297Z,6.57
2023-05-24T12:48:40.616Z,7.15
2023-05-24T12:51:08.478Z,7.90
2023-05-24T12:53:36.655Z,7.25
2023-05-24T12:56:03.751Z,7.15
2023-05-24T12:58:30.852Z,5.88
2023-05-24T13:00:58.176Z,5.38
2023-05-24T13:03:46.080Z,5.20
2023-05-24T13:06:13.231Z,5.32
2023-05-24T13:08:41.102Z,7.05
2023-05-24T13:11:08.366Z,4.93
2023-05-24T13:13:35.519Z,5.80
2023-05-24T13:16:02.863Z,4.72
2023-05-24T13:18:39.079Z,4.43
2023-05-24T13:21:06.240Z,4.50
2023-05-24T13:23:35.203Z,7.60
2023-05-24T13:26:02.812Z,6.82
2023-05-24T13:28:31.419Z,4.78
2023-05-24T13:31:01.630Z,5.07
2023-05-24T13:33:29.909Z,4.40
2023-05-24T13:35:57.434Z,5.03
2023-05-24T13:38:24.694Z,3.83
2023-05-24T13:40:53.751Z,4.55
2023-05-24T13:43:20.925Z,4.80
2023-05-24T13:45:48.328Z,5.00
2023-05-24T13:48:27.295Z,4.32
2023-05-24T13:50:54.518Z,5.00
2023-05-24T13:53:22.893Z,3.75
2023-05-24T13:55:50.041Z,3.85
2023-05-24T13:58:17.101Z,3.72
2023-05-24T14:00:44.469Z,4.05
2023-05-24T14:03:26.711Z,5.57
2023-05-24T14:05:53.863Z,4.75
2023-05-24T14:08:21.013Z,5.05
2023-05-24T14:10:49.929Z,4.82
2023-05-24T14:13:58.783Z,4.53
2023-05-24T14:16:08.908Z,4.68
2023-05-24T14:18:36.465Z,5.13
2023-05-24T14:21:03.625Z,4.75
2023-05-24T14:23:31.932Z,4.03
2023-05-24T14:26:01.367Z,5.20
2023-05-24T14:28:28.553Z,4.50
2023-05-24T14:30:55.680Z,4.05
2023-05-24T14:33:23.476Z,3.85
2023-05-24T14:35:51.515Z,4.22
2023-05-24T14:38:18.663Z,4.28
2023-05-24T14:40:48.089Z,5.35
2023-05-24T14:43:15.417Z,5.00
2023-05-24T14:45:43.396Z,4.47
2023-05-24T14:48:17.097Z,5.00
2023-05-24T14:50:44.203Z,4.45
2023-05-24T14:53:14.374Z,4.85
2023-05-24T14:55:43.203Z,4.68
2023-05-24T14:58:14.191Z,4.47
2023-05-24T15:00:42.724Z,5.03
2023-05-24T15:03:17.080Z,4.88
2023-05-24T15:05:44.305Z,3.88
2023-05-24T15:08:11.805Z,4.25
2023-05-24T15:10:39.377Z,4.72
2023-05-24T15:13:06.693Z,4.55
2023-05-24T15:15:33.960Z,5.03
2023-05-24T15:21:13.746Z,4.22
2023-05-24T15:23:41.624Z,4.15
2023-05-24T15:26:08.872Z,4.93
2023-05-24T15:28:36.117Z,4.55
2023-05-24T15:31:03.811Z,4.30
2023-05-24T15:33:32.756Z,4.90
2023-05-24T15:39:06.016Z,5.07
2023-05-24T15:41:35.415Z,4.28
2023-05-24T15:44:08.573Z,4.10
2023-05-24T15:46:39.138Z,4.65
2023-05-24T15:49:06.299Z,5.18
2023-05-24T15:52:02.862Z,6.18
2023-05-24T15:54:20.383Z,3.53
2023-05-24T16:00:01.982Z,3.50
2023-05-24T16:02:32.027Z,3.63
2023-05-24T16:07:26.293Z,3.83
2023-05-24T16:09:54.123Z,4.50
2023-05-24T16:12:22.030Z,5.18
2023-05-24T16:15:01.888Z,3.97
2023-05-24T16:17:29.241Z,4.38
2023-05-24T16:19:57.415Z,6.05
2023-05-24T16:22:24.685Z,4.30
2023-05-24T16:24:53.293Z,4.28
2023-05-24T16:27:20.454Z,3.75
2023-05-24T16:29:51.710Z,4.05
2023-05-24T16:32:18.991Z,4.47
2023-05-24T16:37:19.426Z,3.85
2023-05-24T16:39:46.518Z,3.70
2023-05-24T16:42:13.598Z,4.43
2023-05-24T16:44:49.182Z,3.35
2023-05-24T16:47:16.316Z,4.88
2023-05-24T16:49:43.405Z,4.63
2023-05-24T16:52:10.521Z,4.35
2023-05-24T16:54:37.662Z,4.07
2023-05-24T16:57:04.861Z,3.22
2023-05-24T17:05:14.656Z,3.83
2023-05-24T17:07:42.759Z,4.15
2023-05-24T17:10:10.076Z,3.60
2023-05-24T17:12:37.128Z,3.58
2023-05-24T17:15:05.560Z,3.28
2023-05-24T17:20:17.305Z,4.95
2023-05-24T17:22:49.322Z,3.53
2023-05-24T17:25:16.569Z,5.20
2023-05-24T17:27:43.651Z,3.63
2023-05-24T17:30:10.930Z,3.78
2023-05-24T17:32:38.112Z,4.18
2023-05-24T17:35:05.573Z,5.90
2023-05-24T17:37:32.688Z,4.00
2023-05-24T17:39:59.772Z,4.75
2023-05-24T17:42:26.945Z,5.38
2023-05-24T17:44:54.557Z,3.67
2023-05-24T17:47:34.229Z,4.18
2023-05-24T17:50:01.391Z,4.00
2023-05-24T17:52:29.674Z,5.00
2023-05-24T17:54:59.803Z,5.47
2023-05-24T17:57:27.491Z,4.68
2023-05-24T17:59:54.535Z,4.03
2023-05-24T18:02:31.823Z,4.60
2023-05-24T18:04:59.069Z,4.43
2023-05-24T18:07:26.245Z,4.80
2023-05-24T18:09:53.341Z,4.28
2023-05-24T18:12:20.371Z,4.60
2023-05-24T18:14:47.788Z,4.65
2023-05-24T18:19:59.785Z,5.57
2023-05-24T18:22:27.893Z,5.88
2023-05-24T18:24:56.296Z,6.15
2023-05-24T18:27:23.390Z,4.40
2023-05-24T18:29:53.447Z,5.80
2023-05-24T18:35:02.386Z,6.07
2023-05-24T18:37:29.588Z,5.55
2023-05-24T18:39:58.753Z,5.43
2023-05-24T18:42:26.071Z,6.25
2023-05-24T18:44:53.839Z,6.57
2023-05-24T18:47:27.991Z,6.07
2023-05-24T18:52:26.777Z,7.13
2023-05-24T18:54:59.219Z,5.80
2023-05-24T18:57:28.120Z,6.07
2023-05-24T18:59:55.691Z,5.65
2023-05-24T19:02:22.931Z,5.97
2023-05-24T19:04:52.030Z,6.10
2023-05-24T19:07:19.179Z,6.30
2023-05-24T19:09:46.573Z,6.55
2023-05-24T19:12:14.842Z,6.55
2023-05-24T19:14:42.058Z,5.68
2023-05-24T19:28:00.677Z,8.13
2023-05-24T19:30:28.584Z,6.77
2023-05-24T19:32:56.222Z,7.75
2023-05-24T19:35:26.685Z,6.63
2023-05-24T19:37:53.855Z,7.10
2023-05-24T19:40:21.336Z,7.13
2023-05-24T19:42:48.447Z,5.85
2023-05-24T19:45:16.275Z,6.75
2023-05-24T19:47:43.992Z,7.30
2023-05-24T19:52:47.114Z,6.95
2023-05-24T19:55:14.469Z,6.75
2023-05-24T19:57:41.615Z,7.07
2023-05-24T20:00:08.864Z,6.40
2023-05-24T20:02:36.810Z,7.13
2023-05-24T20:05:12.268Z,6.15
2023-05-24T20:07:39.333Z,6.38
2023-05-24T20:10:06.795Z,6.20
2023-05-24T20:12:34.782Z,7.00
2023-05-24T20:15:01.970Z,6.30
2023-05-24T20:17:30.551Z,6.20
2023-05-24T20:22:38.333Z,5.38
2023-05-24T20:25:05.876Z,5.95
2023-05-24T20:27:33.127Z,6.18
2023-05-24T20:30:00.351Z,6.18
2023-05-24T20:32:27.516Z,8.27
2023-05-24T20:35:01.831Z,6.72
2023-05-24T20:37:29.002Z,6.47
2023-05-24T20:39:56.079Z,7.13
2023-05-24T20:42:23.167Z,6.30
2023-05-24T20:44:50.414Z,5.90
2023-05-24T20:47:19.127Z,7.22
2023-05-24T20:55:27.162Z,7.65
2023-05-24T20:58:01.878Z,8.43
2023-05-24T21:00:29.042Z,7.55
2023-05-24T21:02:56.292Z,5.70
2023-05-24T21:05:23.504Z,6.45
2023-05-24T21:13:25.628Z,7.97
2023-05-24T21:15:53.185Z,6.68
2023-05-24T21:18:20.483Z,7.85
2023-05-24T21:20:47.849Z,7.22
2023-05-24T21:23:15.028Z,7.07
2023-05-24T21:28:18.678Z,7.07
2023-05-24T21:30:45.896Z,6.75
2023-05-24T21:33:13.127Z,5.88
2023-05-24T21:38:16.365Z,7.55
2023-05-24T21:48:49.104Z,7.28
2023-05-24T21:51:16.294Z,6.88
2023-05-24T21:53:43.695Z,6.80
2023-05-24T21:56:10.837Z,8.43
2023-05-24T21:58:46.689Z,8.63
2023-05-24T22:01:13.869Z,7.80
2023-05-24T22:03:41.137Z,7.60
2023-05-24T22:06:08.634Z,8.05
2023-05-24T22:08:35.841Z,8.38
2023-05-24T22:11:03.121Z,7.55
2023-05-24T22:13:30.211Z,6.85
2023-05-24T22:15:57.639Z,7.22
2023-05-24T22:18:28.351Z,7.78
2023-05-24T22:21:01.492Z,7.53
2023-05-24T22:29:01.232Z,8.20
2023-05-24T22:31:30.597Z,8.50
2023-05-24T22:34:01.148Z,10.25
2023-05-24T22:38:55.770Z,8.98
2023-05-24T22:41:23.216Z,8.13
2023-05-24T22:46:43.582Z,8.65
2023-05-24T22:52:03.537Z,7.53
2023-05-24T23:00:01.845Z,8.13
2023-05-24T23:05:11.761Z,9.13
2023-05-24T23:13:04.582Z,9.95
2023-05-24T23:18:21.412Z,8.45
2023-05-24T23:23:36.209Z,8.05
2023-05-24T23:31:32.585Z,7.68
2023-05-24T23:36:49.468Z,8.00
2023-05-24T23:41:58.129Z,7.38
2023-05-24T23:44:34.324Z,7.95
2023-05-24T23:47:03.529Z,8.18
2023-05-24T23:54:57.912Z,7.85
2023-05-24T23:57:33.022Z,8.90
